KIND

Indianapolis International Airport

Indianapolis, Indiana, USA
METAR KIND 252154Z 26005KT 10SM FEW070 FEW250 30/12 A2986 RMK AO2 SLP104 T03000122
Observed Flight Rules
May-25 @ 21:54 UTC (27 minutes ago) Visual Flight Rules
Wind Visibility Clouds
260° at 5 knots 10 miles
  • Few at 7,000' AGL
  • Few at 25,000' AGL
Temperatures Readings
Current 30°C / 86°F
Dewpoint 12°C / 54°F
Humidity 33%
Altimeter 29.86" Hg
Pressure 1010.4 hPa
Elevation 241
METAR KIND 252154Z 26005KT 10SM FEW070 FEW250 30/12 A2986 RMK AO2 SLP104 T03000122
Observed Flight Rules
May-25 @ 21:54 UTC
(27 minutes ago)
VFR
Wind Visibility
260° at 5 knots 10 miles
Clouds
  • Few at 7,000' AGL
  • Few at 25,000' AGL
Temperature Dewpoint
30°C / 86°F 12°C / 54°F
Humidity Altimeter Pressure
33% 29.86" Hg 1010.4 hPa